Time;durP1;ratioP1;P1;durP2;ratioP2;P2;SDS_P1;SDS_P2;PMS_P1;PMS_P2;Temp;Humidity;BMP_temperature;BMP_pressure;BME280_temperature;BME280_humidity;BME280_pressure;Samples;Min_cycle;Max_cycle;Signal;HPM_P1;HPM_P2
2023/10/19 00:01:09;;;;;;;10.18;6.72;;;8.10;99.90;;;;;;5019264;28;20065;-64
2023/10/19 00:03:49;;;;;;;9.00;6.45;;;8.10;99.90;;;;;;5022567;28;20054;-63
2023/10/19 00:06:30;;;;;;;9.15;6.18;;;8.20;99.90;;;;;;5020590;28;20513;-62
2023/10/19 00:09:11;;;;;;;13.43;6.50;;;8.20;99.90;;;;;;5014859;28;20463;-63
2023/10/19 00:11:40;;;;;;;;;;;8.20;99.90;;;;;;5020723;28;20033;-63
2023/10/19 00:14:25;;;;;;;8.63;5.88;;;8.20;99.90;;;;;;5017273;28;20000;-63
2023/10/19 00:17:11;;;;;;;8.73;6.30;;;8.20;99.90;;;;;;5020042;28;20057;-62
2023/10/19 00:19:42;;;;;;;11.18;7.43;;;8.20;99.90;;;;;;5005376;28;20038;-63
2023/10/19 00:22:15;;;;;;;8.32;6.03;;;8.20;99.90;;;;;;5003362;28;20111;-63
2023/10/19 00:24:41;;;;;;;11.00;6.50;;;8.10;99.90;;;;;;5007871;28;20628;-64
2023/10/19 00:27:14;;;;;;;;;;;8.10;99.90;;;;;;5008506;28;20041;-63
2023/10/19 00:29:41;;;;;;;8.60;5.57;;;8.10;99.90;;;;;;5009667;28;19948;-62
2023/10/19 00:32:12;;;;;;;10.05;5.75;;;8.10;99.90;;;;;;5003678;28;20038;-63
2023/10/19 00:34:39;;;;;;;8.82;4.80;;;8.10;99.90;;;;;;5004491;28;20050;-64
2023/10/19 00:37:07;;;;;;;;;;;8.20;99.90;;;;;;5003460;28;20417;-63
2023/10/19 00:39:43;;;;;;;7.57;4.20;;;8.20;99.90;;;;;;5003168;28;19927;-63
2023/10/19 00:42:09;;;;;;;8.55;3.65;;;8.20;99.90;;;;;;5007698;28;20034;-62
2023/10/19 00:44:42;;;;;;;4.40;2.90;;;8.10;99.90;;;;;;5005998;28;20045;-62
2023/10/19 00:47:14;;;;;;;7.32;3.28;;;8.10;99.90;;;;;;5004745;28;20042;-62
2023/10/19 00:49:40;;;;;;;5.43;2.42;;;8.10;99.90;;;;;;5005474;28;20453;-63
2023/10/19 00:52:12;;;;;;;;;;;8.20;99.90;;;;;;5008840;28;21368;-63
2023/10/19 00:54:51;;;;;;;2.83;1.70;;;8.20;99.90;;;;;;5003580;28;19921;-62
2023/10/19 00:57:32;;;;;;;3.17;1.48;;;8.30;99.90;;;;;;5004223;28;20042;-63
2023/10/19 01:00:11;;;;;;;2.72;1.45;;;8.30;99.90;;;;;;5006534;28;20041;-61
2023/10/19 01:02:44;;;;;;;2.38;0.35;;;8.30;99.90;;;;;;5021839;28;20052;-62
2023/10/19 01:05:13;;;;;;;1.25;0.63;;;8.40;99.90;;;;;;5023808;28;20041;-62
2023/10/19 01:07:40;;;;;;;0.77;0.57;;;8.50;99.90;;;;;;5022957;28;20058;-63
2023/10/19 01:10:28;;;;;;;0.80;0.52;;;8.60;99.90;;;;;;5024863;28;20050;-62
2023/10/19 01:12:54;;;;;;;2.85;0.52;;;8.60;99.90;;;;;;5021905;28;20113;-62
2023/10/19 01:17:57;;;;;;;0.55;0.55;;;8.70;99.90;;;;;;5021539;28;20045;-62
2023/10/19 01:25:36;;;;;;;0.40;0.40;;;8.80;99.90;;;;;;5026332;28;20045;-62
2023/10/19 01:28:10;;;;;;;0.80;0.30;;;8.80;99.90;;;;;;5022315;28;20304;-62
2023/10/19 01:30:38;;;;;;;0.20;0.20;;;8.80;99.90;;;;;;5026300;28;20757;-62
2023/10/19 01:33:08;;;;;;;0.45;0.30;;;8.90;99.90;;;;;;5025799;28;20037;-63
2023/10/19 01:38:18;;;;;;;1.00;0.50;;;8.90;99.90;;;;;;5025377;28;20041;-62
2023/10/19 01:40:48;;;;;;;;;;;8.90;99.90;;;;;;5026542;28;20633;-62
2023/10/19 01:43:20;;;;;;;0.55;0.40;;;9.00;99.90;;;;;;5022493;28;19921;-62
2023/10/19 01:45:47;;;;;;;0.80;0.60;;;9.00;99.90;;;;;;5028511;28;20049;-62
2023/10/19 01:48:13;;;;;;;0.88;0.68;;;9.00;99.90;;;;;;5025212;28;20045;-63
2023/10/19 01:50:39;;;;;;;;;;;9.00;99.90;;;;;;5022855;28;20461;-63
2023/10/19 01:53:15;;;;;;;0.75;0.60;;;9.00;99.90;;;;;;5026550;28;19920;-63
2023/10/19 01:55:44;;;;;;;1.30;0.80;;;9.00;99.90;;;;;;5024198;28;20042;-62
2023/10/19 01:58:10;;;;;;;1.80;0.90;;;9.00;99.90;;;;;;5026433;28;20060;-63
2023/10/19 02:00:39;;;;;;;1.10;0.75;;;9.00;99.90;;;;;;5021658;28;20038;-63
2023/10/19 02:03:08;;;;;;;2.50;1.20;;;9.10;99.90;;;;;;5019472;28;20046;-63
2023/10/19 02:05:41;;;;;;;2.05;1.30;;;9.10;99.90;;;;;;5027809;28;20608;-63
2023/10/19 02:08:07;;;;;;;2.42;1.50;;;9.10;99.90;;;;;;5022925;28;20103;-62
2023/10/19 02:10:34;;;;;;;;;;;9.20;99.90;;;;;;5027086;28;20033;-62
2023/10/19 02:12:59;;;;;;;3.33;1.70;;;9.20;99.90;;;;;;5022143;28;20459;-63
2023/10/19 02:15:25;;;;;;;1.42;1.10;;;9.20;99.90;;;;;;5028415;28;20046;-63
2023/10/19 02:17:54;;;;;;;6.40;1.55;;;9.20;99.90;;;;;;5027268;28;20033;-62
2023/10/19 02:20:24;;;;;;;1.45;1.20;;;9.30;99.90;;;;;;5027480;28;20092;-62
2023/10/19 02:22:52;;;;;;;2.40;1.40;;;9.30;99.90;;;;;;5025535;28;20099;-62
2023/10/19 02:25:19;;;;;;;0.98;0.77;;;9.30;99.90;;;;;;5024566;28;20040;-62
2023/10/19 02:27:44;;;;;;;1.38;0.75;;;9.40;99.90;;;;;;5027299;28;20041;-62
2023/10/19 02:30:11;;;;;;;;;;;9.40;99.90;;;;;;5027225;28;20556;-62
2023/10/19 02:32:37;;;;;;;1.00;0.60;;;9.50;99.90;;;;;;5014360;28;20055;-61
2023/10/19 02:35:03;;;;;;;1.00;0.50;;;9.50;99.90;;;;;;5020278;28;20056;-63
2023/10/19 02:37:28;;;;;;;0.85;0.60;;;9.50;99.90;;;;;;5024716;28;20568;-62
2023/10/19 02:39:54;;;;;;;;;;;9.50;99.90;;;;;;5023478;28;20060;-60
2023/10/19 02:42:22;;;;;;;1.10;0.85;;;9.50;99.90;;;;;;5025197;28;19917;-62
2023/10/19 02:44:50;;;;;;;3.30;0.82;;;9.60;99.90;;;;;;5026622;28;20038;-63
2023/10/19 02:47:17;;;;;;;0.93;0.70;;;9.60;99.90;;;;;;5025486;28;20045;-63
2023/10/19 02:49:50;;;;;;;1.13;0.80;;;9.60;99.90;;;;;;5022373;28;20038;-64
2023/10/19 02:52:16;;;;;;;1.70;1.17;;;9.60;99.90;;;;;;5019590;28;20103;-62
2023/10/19 02:54:41;;;;;;;;;;;9.70;99.90;;;;;;5026978;28;20037;-60
2023/10/19 02:57:09;;;;;;;3.38;1.80;;;9.70;99.90;;;;;;5024038;28;20379;-61
2023/10/19 02:59:35;;;;;;;2.83;1.50;;;9.80;99.90;;;;;;5021190;28;20056;-64
2023/10/19 03:04:37;;;;;;;5.32;2.60;;;9.90;99.90;;;;;;5001158;28;20054;-63
2023/10/19 03:07:04;;;;;;;;;;;9.90;99.90;;;;;;5006786;28;20069;-57
2023/10/19 03:09:30;;;;;;;5.05;1.77;;;9.90;99.90;;;;;;5005845;28;19918;-60
2023/10/19 03:12:00;;;;;;;3.00;1.80;;;10.00;99.90;;;;;;5004726;28;20133;-62
2023/10/19 03:14:28;;;;;;;2.80;1.48;;;10.00;99.90;;;;;;5001122;28;20053;-62
2023/10/19 03:16:57;;;;;;;3.08;2.00;;;10.00;99.90;;;;;;5006638;28;20045;-62
2023/10/19 03:19:27;;;;;;;5.75;2.88;;;10.00;99.90;;;;;;5001618;28;20967;-62
2023/10/19 03:21:55;;;;;;;5.00;2.20;;;10.10;99.90;;;;;;5002797;28;20065;-62
2023/10/19 03:24:37;;;;;;;3.35;2.65;;;10.10;99.90;;;;;;4999244;28;20046;-62
2023/10/19 03:27:18;;;;;;;6.22;2.50;;;10.10;99.90;;;;;;5006131;28;20526;-62
2023/10/19 03:29:48;;;;;;;3.80;2.42;;;10.20;99.90;;;;;;5001008;28;20116;-63
2023/10/19 03:32:19;;;;;;;5.18;2.67;;;10.20;99.90;;;;;;5005575;28;20122;-64
2023/10/19 03:34:47;;;;;;;4.53;2.53;;;10.30;99.90;;;;;;5002423;28;20524;-63
2023/10/19 03:37:14;;;;;;;6.70;2.80;;;10.30;99.90;;;;;;5005888;28;20099;-63
2023/10/19 03:39:41;;;;;;;4.63;2.97;;;10.40;99.90;;;;;;5004781;28;20068;-64
2023/10/19 03:42:07;;;;;;;7.75;3.30;;;10.50;99.90;;;;;;5006084;28;20088;-63
2023/10/19 03:47:18;;;;;;;6.30;3.00;;;10.60;99.90;;;;;;5007054;28;20073;-63
2023/10/19 03:49:46;;;;;;;6.35;3.45;;;10.70;99.90;;;;;;5003083;28;20496;-63
2023/10/19 03:54:39;;;;;;;6.13;3.25;;;10.80;99.90;;;;;;5004455;28;20494;-63
2023/10/19 03:57:11;;;;;;;4.85;3.65;;;10.90;99.90;;;;;;5010892;28;20089;-63
2023/10/19 03:59:41;;;;;;;4.85;3.20;;;10.90;99.90;;;;;;5005578;28;20042;-61
2023/10/19 04:02:13;;;;;;;5.47;3.55;;;11.00;99.90;;;;;;5010289;28;20512;-62
2023/10/19 04:04:49;;;;;;;6.45;3.58;;;11.10;99.90;;;;;;5009937;28;20525;-62
2023/10/19 04:07:21;;;;;;;4.88;3.40;;;11.10;99.90;;;;;;5008226;28;20061;-64
2023/10/19 04:12:28;;;;;;;6.55;3.33;;;11.20;99.90;;;;;;5008075;28;20066;-62
2023/10/19 04:14:56;;;;;;;6.53;2.97;;;11.30;99.90;;;;;;5007183;28;20037;-62
2023/10/19 04:17:23;;;;;;;4.72;2.90;;;11.30;99.90;;;;;;5009568;28;20413;-63
2023/10/19 04:19:49;;;;;;;8.63;3.33;;;11.30;99.90;;;;;;5006919;28;20124;-62
2023/10/19 04:22:22;;;;;;;;;;;11.30;99.90;;;;;;5010018;28;20474;-64
2023/10/19 04:24:52;;;;;;;7.57;2.53;;;11.30;99.90;;;;;;5006288;28;19949;-63
2023/10/19 04:27:21;;;;;;;3.50;2.22;;;11.20;99.90;;;;;;5007412;28;20498;-63
2023/10/19 04:29:49;;;;;;;5.07;2.53;;;11.20;99.90;;;;;;5001807;28;20068;-62
2023/10/19 04:32:23;;;;;;;3.80;2.28;;;11.20;99.90;;;;;;5021911;28;20049;-63
2023/10/19 04:34:48;;;;;;;5.13;2.47;;;11.20;99.90;;;;;;5025463;28;20056;-62
2023/10/19 04:37:18;;;;;;;;;;;11.10;99.90;;;;;;5026196;28;20041;-64
2023/10/19 04:39:46;;;;;;;4.90;2.22;;;11.20;99.90;;;;;;5022380;28;20644;-62
2023/10/19 04:42:12;;;;;;;7.07;2.88;;;11.20;99.90;;;;;;5027743;28;20041;-60
2023/10/19 04:44:38;;;;;;;;;;;11.20;99.90;;;;;;5023700;28;20037;-62
2023/10/19 04:47:03;;;;;;;9.63;2.92;;;11.20;99.90;;;;;;5026712;28;19967;-62
2023/10/19 04:49:29;;;;;;;;;;;11.20;99.90;;;;;;5021294;28;20049;-62
2023/10/19 04:51:54;;;;;;;7.68;2.90;;;11.30;99.90;;;;;;5028065;28;20467;-62
2023/10/19 04:54:20;;;;;;;;;;;11.30;99.90;;;;;;5026473;28;20124;-63
2023/10/19 04:56:45;;;;;;;6.00;2.97;;;11.30;99.90;;;;;;5027727;28;19928;-62
2023/10/19 04:59:11;;;;;;;4.95;2.83;;;11.30;99.90;;;;;;5022107;28;20037;-62
2023/10/19 05:01:37;;;;;;;;;;;11.30;99.90;;;;;;5015582;28;20048;-63
2023/10/19 05:04:03;;;;;;;3.20;2.00;;;11.30;99.90;;;;;;5007765;28;19918;-63
2023/10/19 05:06:28;;;;;;;;;;;11.30;99.90;;;;;;5008774;28;20081;-62
2023/10/19 05:08:54;;;;;;;4.00;2.05;;;11.30;99.90;;;;;;5004349;28;19960;-64
2023/10/19 05:11:20;;;;;;;;;;;11.30;99.90;;;;;;5004849;28;20041;-62
2023/10/19 05:13:46;;;;;;;5.40;1.77;;;11.30;99.90;;;;;;5008089;28;20002;-64
2023/10/19 05:16:11;;;;;;;;;;;11.30;99.90;;;;;;5009182;28;20038;-63
2023/10/19 05:18:38;;;;;;;4.00;1.95;;;11.30;99.90;;;;;;5008752;28;20012;-64
2023/10/19 05:21:05;;;;;;;3.35;1.98;;;11.30;99.90;;;;;;5006824;28;20064;-65
2023/10/19 05:23:30;;;;;;;4.68;1.90;;;11.30;99.90;;;;;;5009763;28;20053;-65
2023/10/19 05:26:04;;;;;;;;;;;11.30;99.90;;;;;;5010989;28;20046;-65
2023/10/19 05:28:30;;;;;;;;;;;11.30;99.90;;;;;;5007702;28;19921;-65
2023/10/19 05:30:55;;;;;;;;;;;11.20;99.90;;;;;;5008877;28;19924;-63
2023/10/19 05:33:23;;;;;;;;;;;11.20;99.90;;;;;;5005824;28;19932;-64
2023/10/19 05:35:49;;;;;;;;;;;11.20;99.90;;;;;;5004042;28;19921;-64
2023/10/19 05:38:15;;;;;;;;;;;11.20;99.90;;;;;;5007244;28;19925;-63
2023/10/19 05:40:43;;;;;;;;;;;11.20;99.90;;;;;;5006742;28;20259;-63
2023/10/19 05:43:08;;;;;;;;;;;11.20;99.90;;;;;;5010010;28;19921;-64
2023/10/19 05:45:36;;;;;;;;;;;11.20;99.90;;;;;;5008930;28;20428;-64
2023/10/19 05:48:03;;;;;;;;;;;11.20;99.90;;;;;;5007759;28;19918;-63
2023/10/19 05:50:29;;;;;;;;;;;11.20;99.90;;;;;;5013087;28;19917;-63
2023/10/19 05:52:55;;;;;;;;;;;11.20;99.90;;;;;;5003272;28;19928;-63
2023/10/19 05:55:21;;;;;;;;;;;11.20;99.90;;;;;;5007050;28;19953;-61
2023/10/19 05:57:47;;;;;;;;;;;11.20;99.90;;;;;;5002033;28;19932;-63
2023/10/19 06:00:13;;;;;;;;;;;11.20;99.90;;;;;;5008009;28;19921;-62
2023/10/19 06:02:39;;;;;;;;;;;11.20;99.90;;;;;;5003102;28;19921;-61
2023/10/19 06:05:06;;;;;;;;;;;11.10;99.90;;;;;;5012771;28;19922;-64
2023/10/19 06:07:32;;;;;;;;;;;11.20;99.90;;;;;;5007913;28;20360;-62
2023/10/19 06:10:00;;;;;;;;;;;11.10;99.90;;;;;;5007418;28;19925;-63
2023/10/19 06:12:26;;;;;;;;;;;11.10;99.90;;;;;;5005321;28;19918;-63
2023/10/19 06:14:51;;;;;;;;;;;11.10;99.90;;;;;;5005192;28;19923;-62
2023/10/19 06:17:19;;;;;;;;;;;11.00;99.90;;;;;;5012085;28;20419;-62
2023/10/19 06:19:45;;;;;;;;;;;11.10;99.90;;;;;;5003955;28;20011;-62
2023/10/19 06:22:12;;;;;;;;;;;11.10;99.90;;;;;;5002545;28;19924;-62
2023/10/19 06:24:37;;;;;;;;;;;11.10;99.90;;;;;;5001821;28;19929;-62
2023/10/19 06:27:03;;;;;;;;;;;11.10;99.90;;;;;;5007069;28;19925;-62
2023/10/19 06:29:29;;;;;;;;;;;11.10;99.90;;;;;;5005501;28;19917;-62
2023/10/19 06:31:55;;;;;;;;;;;11.00;99.90;;;;;;5004478;28;19932;-61
2023/10/19 06:34:20;;;;;;;;;;;11.10;99.90;;;;;;5006570;28;20316;-62
2023/10/19 06:36:46;;;;;;;;;;;11.10;99.90;;;;;;5007012;28;20027;-61
2023/10/19 06:39:13;;;;;;;;;;;11.10;99.90;;;;;;5005801;28;19952;-61
2023/10/19 06:41:39;;;;;;;;;;;11.10;99.90;;;;;;5003732;28;19928;-61
2023/10/19 06:44:05;;;;;;;;;;;11.10;99.90;;;;;;5005689;28;20125;-61
2023/10/19 06:46:31;;;;;;;;;;;11.10;99.90;;;;;;5006777;28;19952;-61
2023/10/19 06:49:00;;;;;;;;;;;11.10;99.90;;;;;;5005764;28;19955;-60
2023/10/19 06:51:26;;;;;;;;;;;11.10;99.90;;;;;;5005586;28;19925;-62
2023/10/19 06:53:52;;;;;;;;;;;11.10;99.90;;;;;;5005202;28;19922;-62
2023/10/19 06:56:18;;;;;;;;;;;11.20;99.90;;;;;;5007178;28;20373;-61
2023/10/19 06:58:44;;;;;;;;;;;11.20;99.90;;;;;;5005496;28;19917;-62
2023/10/19 07:01:10;;;;;;;;;;;11.20;99.90;;;;;;5006193;28;19959;-61
2023/10/19 07:03:36;;;;;;;;;;;11.20;99.90;;;;;;5004513;28;19923;-60
2023/10/19 07:06:02;;;;;;;;;;;11.20;99.90;;;;;;5006228;28;20377;-61
2023/10/19 07:08:28;;;;;;;;;;;11.20;99.90;;;;;;5005336;28;19924;-62
2023/10/19 07:10:54;;;;;;;;;;;11.20;99.90;;;;;;5003260;28;19917;-62
2023/10/19 07:13:20;;;;;;;;;;;11.20;99.90;;;;;;5006273;28;20315;-62
2023/10/19 07:15:46;;;;;;;;;;;11.20;99.90;;;;;;5006331;28;20300;-62
2023/10/19 07:18:13;;;;;;;;;;;11.20;99.90;;;;;;5004236;28;19917;-62
2023/10/19 07:20:39;;;;;;;;;;;11.30;99.90;;;;;;5004760;28;19921;-62
2023/10/19 07:23:21;;;;;;;;;;;11.30;99.90;;;;;;5005086;28;19948;-62
2023/10/19 07:25:54;;;;;;;;;;;11.30;99.90;;;;;;5006062;28;19925;-62
2023/10/19 07:28:21;;;;;;;;;;;11.30;99.90;;;;;;5006080;28;19924;-62
2023/10/19 07:30:46;;;;;;;;;;;11.30;99.90;;;;;;5009652;28;20055;-62
2023/10/19 07:33:19;;;;;;;;;;;11.30;99.90;;;;;;5008520;28;20004;-61
2023/10/19 07:35:51;;;;;;;;;;;11.30;99.90;;;;;;5011271;28;19964;-62
2023/10/19 07:38:17;;;;;;;;;;;11.30;99.90;;;;;;5009091;28;19921;-61
2023/10/19 07:40:43;;;;;;;;;;;11.40;99.90;;;;;;5009966;28;19968;-62
2023/10/19 07:43:09;;;;;;;;;;;11.40;99.90;;;;;;5010548;28;20436;-62
2023/10/19 07:45:36;;;;;;;;;;;11.40;99.90;;;;;;5010224;28;19921;-62
2023/10/19 07:48:06;;;;;;;;;;;11.40;99.90;;;;;;5007522;28;19917;-62
2023/10/19 07:50:35;;;;;;;;;;;11.40;99.90;;;;;;5010466;28;19921;-62
2023/10/19 07:53:01;;;;;;;;;;;11.30;99.90;;;;;;5004290;28;20434;-63
2023/10/19 07:55:26;;;;;;;;;;;11.30;99.90;;;;;;5010337;28;19921;-62
2023/10/19 07:57:52;;;;;;;;;;;11.40;99.90;;;;;;5008106;28;19922;-62
2023/10/19 08:00:19;;;;;;;;;;;11.40;99.90;;;;;;5009959;28;20020;-63
2023/10/19 08:02:47;;;;;;;;;;;11.40;99.90;;;;;;5027924;28;19925;-62
2023/10/19 08:05:13;;;;;;;;;;;11.40;99.90;;;;;;5030622;28;20011;-61
2023/10/19 08:07:42;;;;;;;;;;;11.40;99.90;;;;;;5027221;28;19924;-62
2023/10/19 08:10:12;;;;;;;;;;;11.40;99.90;;;;;;5025854;28;20000;-61
2023/10/19 08:12:39;;;;;;;;;;;11.40;99.90;;;;;;5024513;28;19933;-63
2023/10/19 08:15:06;;;;;;;;;;;11.40;99.90;;;;;;5023257;28;19920;-63
2023/10/19 08:17:33;;;;;;;;;;;11.50;99.90;;;;;;5025204;28;20316;-61
2023/10/19 08:20:02;;;;;;;;;;;11.50;99.90;;;;;;5021703;28;20537;-64
2023/10/19 08:22:28;;;;;;;;;;;11.50;99.90;;;;;;5024526;28;19924;-60
2023/10/19 08:24:54;;;;;;;;;;;11.60;99.90;;;;;;5021664;28;20377;-63
2023/10/19 08:27:21;;;;;;;;;;;11.50;99.90;;;;;;5028315;28;19948;-62
2023/10/19 08:29:46;;;;;;;;;;;11.50;99.90;;;;;;5022402;28;19917;-62
2023/10/19 08:32:14;;;;;;;;;;;11.50;99.90;;;;;;5022710;28;19921;-61
2023/10/19 08:34:41;;;;;;;;;;;11.50;99.90;;;;;;5026897;28;19927;-61
2023/10/19 08:37:07;;;;;;;;;;;11.60;99.90;;;;;;5027456;28;19920;-62
2023/10/19 08:39:36;;;;;;;;;;;11.60;99.90;;;;;;5026233;28;20329;-62
2023/10/19 08:42:03;;;;;;;;;;;11.60;99.90;;;;;;5028215;28;19956;-62
2023/10/19 08:44:30;;;;;;;;;;;11.60;99.90;;;;;;5023793;28;19917;-62
2023/10/19 08:46:57;;;;;;;;;;;11.60;99.90;;;;;;5028170;28;19929;-62
2023/10/19 08:49:22;;;;;;;;;;;11.70;99.90;;;;;;5025620;28;19924;-61
2023/10/19 08:51:48;;;;;;;;;;;11.70;99.90;;;;;;5024186;28;20293;-63
2023/10/19 08:54:15;;;;;;;;;;;11.80;99.90;;;;;;5025888;28;20499;-60
2023/10/19 08:56:41;;;;;;;;;;;11.80;99.90;;;;;;5025794;28;19921;-63
2023/10/19 08:59:07;;;;;;;;;;;11.80;99.90;;;;;;5022514;28;19948;-62
2023/10/19 09:01:35;;;;;;;;;;;11.90;99.90;;;;;;5017110;28;19925;-63
2023/10/19 09:04:01;;;;;;;;;;;11.90;99.90;;;;;;5004939;28;20464;-62
2023/10/19 09:06:30;;;;;;;;;;;11.90;99.90;;;;;;5007284;28;20257;-62
2023/10/19 09:08:57;;;;;;;;;;;12.00;99.90;;;;;;5005472;28;19917;-62
2023/10/19 09:11:24;;;;;;;;;;;12.00;99.90;;;;;;5007538;28;20292;-63
2023/10/19 09:13:51;;;;;;;;;;;12.00;99.90;;;;;;5005489;28;19917;-62
2023/10/19 09:16:18;;;;;;;;;;;12.10;99.90;;;;;;5007928;28;21558;-63
2023/10/19 09:18:47;;;;;;;;;;;12.10;99.90;;;;;;5002662;28;19918;-65
2023/10/19 09:21:25;;;;;;;;;;;12.20;99.90;;;;;;5008969;28;19933;-61
2023/10/19 09:23:54;;;;;;;;;;;12.30;99.90;;;;;;5002291;28;20072;-60
2023/10/19 09:26:21;;;;;;;;;;;12.30;99.90;;;;;;5007356;28;19929;-62
2023/10/19 09:28:50;;;;;;;;;;;12.40;99.90;;;;;;5005118;28;19991;-63
2023/10/19 09:31:16;;;;;;;;;;;12.40;99.90;;;;;;5004927;28;19922;-60
2023/10/19 09:33:44;;;;;;;;;;;12.40;99.90;;;;;;5007893;28;20577;-62
2023/10/19 09:36:14;;;;;;;;;;;12.50;99.90;;;;;;5005829;28;19929;-60
2023/10/19 09:38:43;;;;;;;;;;;12.50;99.90;;;;;;5004550;28;19917;-61
2023/10/19 09:41:11;;;;;;;;;;;12.60;99.90;;;;;;5006076;28;19932;-62
2023/10/19 09:43:38;;;;;;;;;;;12.60;99.90;;;;;;5002868;28;20007;-64
2023/10/19 09:46:09;;;;;;;;;;;12.70;99.90;;;;;;5006984;28;19928;-61
2023/10/19 09:48:39;;;;;;;;;;;12.70;99.90;;;;;;5002790;28;19918;-62
2023/10/19 09:51:05;;;;;;;;;;;12.70;99.90;;;;;;5001426;28;20386;-61
2023/10/19 09:53:31;;;;;;;;;;;12.70;99.90;;;;;;5002296;28;19956;-62
2023/10/19 09:55:58;;;;;;;;;;;12.70;99.90;;;;;;5001662;28;19921;-61
2023/10/19 09:58:25;;;;;;;;;;;12.70;99.90;;;;;;5002033;28;19917;-62
2023/10/19 10:00:51;;;;;;;;;;;12.80;99.90;;;;;;5001685;28;19931;-62
2023/10/19 10:03:36;;;;;;;;;;;12.90;99.90;;;;;;5001329;28;19929;-66
2023/10/19 10:06:02;;;;;;;;;;;12.90;99.90;;;;;;5004754;28;19928;-65
2023/10/19 10:08:29;;;;;;;;;;;13.10;99.90;;;;;;5005149;28;19921;-64
2023/10/19 10:10:55;;;;;;;;;;;13.20;99.90;;;;;;5005396;28;19961;-64
2023/10/19 10:13:23;;;;;;;;;;;13.30;99.90;;;;;;5006186;28;19960;-63
2023/10/19 10:15:49;;;;;;;;;;;13.40;99.90;;;;;;5008195;28;20419;-63
2023/10/19 10:18:15;;;;;;;;;;;13.50;99.90;;;;;;5006769;28;19921;-63
2023/10/19 10:20:41;;;;;;;;;;;13.50;99.90;;;;;;5007968;28;19960;-63
2023/10/19 10:23:16;;;;;;;;;;;13.60;99.90;;;;;;5006795;28;20334;-64
2023/10/19 10:25:48;;;;;;;;;;;13.60;99.90;;;;;;5008021;28;19929;-62
2023/10/19 10:28:14;;;;;;;;;;;13.70;99.90;;;;;;5002220;28;19924;-62
2023/10/19 10:30:59;;;;;;;;;;;13.80;99.90;;;;;;5008550;28;19924;-63
2023/10/19 10:33:41;;;;;;;;;;;13.90;99.90;;;;;;5023624;28;20015;-63
2023/10/19 10:36:07;;;;;;;;;;;14.00;99.90;;;;;;5023984;28;21434;-59
2023/10/19 10:38:35;;;;;;;;;;;14.40;99.90;;;;;;5026141;28;19925;-62
2023/10/19 10:41:01;;;;;;;;;;;14.60;99.90;;;;;;5024773;28;19928;-63
2023/10/19 10:43:27;;;;;;;;;;;14.70;99.90;;;;;;5024061;28;19917;-64
2023/10/19 10:46:02;;;;;;;;;;;15.00;99.90;;;;;;5024890;28;19921;-64
2023/10/19 10:48:28;;;;;;;;;;;15.20;99.90;;;;;;5025154;28;19948;-63
2023/10/19 10:50:53;;;;;;;;;;;15.30;99.90;;;;;;5028057;28;19975;-62
2023/10/19 10:53:19;;;;;;;;;;;15.40;99.90;;;;;;5022081;28;20327;-64
2023/10/19 10:55:45;;;;;;;;;;;15.40;99.90;;;;;;5025139;28;19917;-63
2023/10/19 10:58:17;;;;;;;;;;;15.30;99.90;;;;;;5020500;28;19917;-63
2023/10/19 11:00:43;;;;;;;;;;;15.00;99.90;;;;;;5021490;28;20372;-63
2023/10/19 11:03:09;;;;;;;;;;;14.70;99.90;;;;;;5022378;28;19928;-61
2023/10/19 11:05:38;;;;;;;;;;;14.60;99.90;;;;;;5020396;28;19916;-63
2023/10/19 11:08:13;;;;;;;;;;;14.50;99.90;;;;;;5022573;28;19921;-60
2023/10/19 11:10:39;;;;;;;;;;;14.40;99.90;;;;;;5019512;28;19928;-64
2023/10/19 11:13:08;;;;;;;;;;;14.40;99.90;;;;;;5022426;28;20063;-62
2023/10/19 11:15:36;;;;;;;;;;;14.30;99.90;;;;;;5027505;28;19921;-63
2023/10/19 11:18:02;;;;;;;;;;;14.20;99.90;;;;;;5022828;28;19921;-64
2023/10/19 11:20:28;;;;;;;;;;;14.20;99.90;;;;;;5026208;28;20325;-63
2023/10/19 11:23:00;;;;;;;;;;;14.10;99.90;;;;;;5022371;28;19995;-64
2023/10/19 11:25:30;;;;;;;;;;;14.10;99.90;;;;;;5026431;28;19967;-62
2023/10/19 11:27:56;;;;;;;;;;;14.10;99.90;;;;;;5021729;28;19952;-60
2023/10/19 11:30:31;;;;;;;;;;;14.00;99.90;;;;;;5024833;28;20459;-64
2023/10/19 11:32:59;;;;;;;;;;;14.00;99.90;;;;;;5023097;28;19917;-62
2023/10/19 11:35:25;;;;;;;;;;;14.00;99.90;;;;;;5022329;28;19956;-63
2023/10/19 11:37:55;;;;;;;;;;;14.00;99.90;;;;;;5020262;28;20009;-62
2023/10/19 11:40:21;;;;;;;;;;;14.10;99.90;;;;;;5022581;28;20643;-59
2023/10/19 11:42:47;;;;;;;;;;;14.30;99.90;;;;;;5023499;28;19925;-62
2023/10/19 11:45:13;;;;;;;;;;;14.50;99.90;;;;;;5023067;28;19982;-62
2023/10/19 11:47:38;;;;;;;;;;;14.50;99.90;;;;;;5017605;28;20369;-63
2023/10/19 11:50:04;;;;;;;;;;;14.50;99.90;;;;;;5024289;28;19964;-64
2023/10/19 11:52:30;;;;;;;;;;;14.50;99.90;;;;;;5014839;28;19928;-63
2023/10/19 11:54:56;;;;;;;;;;;14.50;99.90;;;;;;5018401;28;19921;-62
2023/10/19 11:57:22;;;;;;;;;;;14.50;99.90;;;;;;5024758;28;19932;-63
2023/10/19 11:59:52;;;;;;;;;;;14.50;99.90;;;;;;5020639;28;19928;-64
2023/10/19 12:02:18;;;;;;;;;;;14.50;99.90;;;;;;5023474;28;19921;-63
2023/10/19 12:04:45;;;;;;;;;;;14.50;99.90;;;;;;5024893;28;20478;-62
2023/10/19 12:07:11;;;;;;;;;;;14.40;99.90;;;;;;5022748;28;20396;-61
2023/10/19 12:09:36;;;;;;;;;;;14.30;99.90;;;;;;5021313;28;19924;-63
2023/10/19 12:12:05;;;;;;;;;;;14.20;99.90;;;;;;5023022;28;19917;-65
2023/10/19 12:14:34;;;;;;;;;;;14.10;99.90;;;;;;5022127;28;20183;-62
2023/10/19 12:17:01;;;;;;;;;;;14.10;99.90;;;;;;5029305;28;20624;-66
2023/10/19 12:19:28;;;;;;;;;;;14.10;99.90;;;;;;5022145;28;19924;-63
2023/10/19 12:21:54;;;;;;;;;;;14.00;99.90;;;;;;5027050;28;20376;-63
2023/10/19 12:24:21;;;;;;;;;;;14.00;99.90;;;;;;5021634;28;19925;-62
2023/10/19 12:26:46;;;;;;;;;;;13.90;99.90;;;;;;5028756;28;19929;-63
2023/10/19 12:29:14;;;;;;;;;;;13.80;99.90;;;;;;5021948;28;19928;-61
2023/10/19 12:31:40;;;;;;;;;;;13.60;99.90;;;;;;5020847;28;19924;-62
2023/10/19 12:34:06;;;;;;;;;;;13.50;99.90;;;;;;5023706;28;19921;-60
2023/10/19 12:36:32;;;;;;;;;;;13.60;99.90;;;;;;5028752;28;20002;-61
2023/10/19 12:38:57;;;;;;;;;;;13.50;99.90;;;;;;5027216;28;19968;-63
2023/10/19 12:41:24;;;;;;;;;;;13.50;99.90;;;;;;5025359;28;19924;-63
2023/10/19 12:43:52;;;;;;;;;;;13.50;99.90;;;;;;5022476;28;20376;-62
2023/10/19 12:46:19;;;;;;;;;;;13.50;99.90;;;;;;5027634;28;19924;-62
2023/10/19 12:48:46;;;;;;;;;;;13.50;99.90;;;;;;5022142;28;20435;-62
2023/10/19 12:51:13;;;;;;;;;;;13.50;99.90;;;;;;5028699;28;19916;-61
2023/10/19 12:53:39;;;;;;;;;;;13.50;99.90;;;;;;5023538;28;20423;-61
2023/10/19 12:56:05;;;;;;;;;;;13.50;99.90;;;;;;5027264;28;20007;-62
2023/10/19 12:58:31;;;;;;;;;;;13.50;99.90;;;;;;5021482;28;20372;-62
2023/10/19 13:00:58;;;;;;;;;;;13.50;99.90;;;;;;5028441;28;19917;-61
2023/10/19 13:03:27;;;;;;;;;;;13.50;99.90;;;;;;5016940;28;19963;-61
2023/10/19 13:05:53;;;;;;;;;;;13.50;99.90;;;;;;5029197;28;20015;-62
2023/10/19 13:08:18;;;;;;;;;;;13.50;99.90;;;;;;5022571;28;20490;-63
2023/10/19 13:10:45;;;;;;;;;;;13.50;99.90;;;;;;5026762;28;19996;-63
2023/10/19 13:13:17;;;;;;;;;;;13.50;99.90;;;;;;5023169;28;19937;-62
2023/10/19 13:15:44;;;;;;;;;;;13.60;99.90;;;;;;5025691;28;19928;-62
2023/10/19 13:18:10;;;;;;;;;;;13.50;99.90;;;;;;5022750;28;19928;-63
2023/10/19 13:20:37;;;;;;;;;;;13.50;99.90;;;;;;5029049;28;19920;-61
2023/10/19 13:23:06;;;;;;;;;;;13.50;99.90;;;;;;5023415;28;19953;-61
2023/10/19 13:25:46;;;;;;;;;;;13.50;99.90;;;;;;5027333;28;19924;-63
2023/10/19 13:28:12;;;;;;;;;;;13.50;99.90;;;;;;5022111;28;19968;-62
2023/10/19 13:30:42;;;;;;;;;;;13.50;99.90;;;;;;5026749;28;19956;-62
2023/10/19 13:33:09;;;;;;;;;;;13.50;99.90;;;;;;5021641;28;19918;-62
2023/10/19 13:35:38;;;;;;;;;;;13.40;99.90;;;;;;5027694;28;19925;-62
2023/10/19 13:38:04;;;;;;;;;;;13.40;99.90;;;;;;5027875;28;19927;-62
2023/10/19 13:40:30;;;;;;;;;;;13.40;99.90;;;;;;5023898;28;19944;-62
2023/10/19 13:42:56;;;;;;;;;;;13.50;99.90;;;;;;5023247;28;20329;-63
2023/10/19 13:45:22;;;;;;;;;;;13.50;99.90;;;;;;5025962;28;19991;-61
2023/10/19 13:47:47;;;;;;;;;;;13.50;99.90;;;;;;5026795;28;20611;-62
2023/10/19 13:50:13;;;;;;;;;;;13.50;99.90;;;;;;5027997;28;19920;-62
2023/10/19 13:52:39;;;;;;;;;;;13.50;99.90;;;;;;5024968;28;20648;-62
2023/10/19 13:55:07;;;;;;;;;;;13.50;99.90;;;;;;5019229;28;19968;-62
2023/10/19 13:57:33;;;;;;;;;;;13.50;99.90;;;;;;5024966;28;19936;-61
2023/10/19 13:59:58;;;;;;;;;;;13.50;99.90;;;;;;5027810;28;19921;-62
2023/10/19 14:02:24;;;;;;;;;;;13.50;99.90;;;;;;5007953;28;19975;-62
2023/10/19 14:04:51;;;;;;;;;;;13.50;99.90;;;;;;5002982;28;19928;-62
2023/10/19 14:07:17;;;;;;;;;;;13.50;99.90;;;;;;5006455;28;19925;-60
2023/10/19 14:09:42;;;;;;;;;;;13.50;99.90;;;;;;5006924;28;19928;-62
2023/10/19 14:12:08;;;;;;;;;;;13.50;99.90;;;;;;5007805;28;20384;-62
2023/10/19 14:14:34;;;;;;;;;;;13.50;99.90;;;;;;5000725;28;19917;-62